sensor_id;sensor_type;location;lat;lon;timestamp;temperature;humidity
24103;DHT22;12278;53.058;9.028;2023-04-24T00:00:48;12.20;99.90
24103;DHT22;12278;53.058;9.028;2023-04-24T00:04:49;12.30;99.90
24103;DHT22;12278;53.058;9.028;2023-04-24T00:08:50;12.30;99.90
24103;DHT22;12278;53.058;9.028;2023-04-24T00:12:50;12.40;99.90
24103;DHT22;12278;53.058;9.028;2023-04-24T00:16:51;12.40;99.90
24103;DHT22;12278;53.058;9.028;2023-04-24T00:20:53;12.40;99.90
24103;DHT22;12278;53.058;9.028;2023-04-24T00:24:54;12.30;99.90
24103;DHT22;12278;53.058;9.028;2023-04-24T00:28:55;12.30;99.90
24103;DHT22;12278;53.058;9.028;2023-04-24T00:32:55;12.40;99.90
24103;DHT22;12278;53.058;9.028;2023-04-24T00:36:56;12.40;99.90
24103;DHT22;12278;53.058;9.028;2023-04-24T00:40:56;12.30;99.90
24103;DHT22;12278;53.058;9.028;2023-04-24T00:44:57;12.30;99.90
24103;DHT22;12278;53.058;9.028;2023-04-24T00:48:59;12.20;99.90
24103;DHT22;12278;53.058;9.028;2023-04-24T00:53:00;12.30;99.90
24103;DHT22;12278;53.058;9.028;2023-04-24T00:57:02;12.20;99.90
24103;DHT22;12278;53.058;9.028;2023-04-24T01:01:04;12.10;99.90
24103;DHT22;12278;53.058;9.028;2023-04-24T01:05:14;12.10;99.90
24103;DHT22;12278;53.058;9.028;2023-04-24T01:09:15;12.00;99.90
24103;DHT22;12278;53.058;9.028;2023-04-24T01:13:19;11.80;99.90
24103;DHT22;12278;53.058;9.028;2023-04-24T01:17:21;11.80;99.90
24103;DHT22;12278;53.058;9.028;2023-04-24T01:21:23;11.70;99.90
24103;DHT22;12278;53.058;9.028;2023-04-24T01:25:28;11.60;99.90
24103;DHT22;12278;53.058;9.028;2023-04-24T01:29:28;11.60;99.90
24103;DHT22;12278;53.058;9.028;2023-04-24T01:33:29;11.60;99.90
24103;DHT22;12278;53.058;9.028;2023-04-24T01:37:30;11.50;99.90
24103;DHT22;12278;53.058;9.028;2023-04-24T01:41:32;11.60;99.90
24103;DHT22;12278;53.058;9.028;2023-04-24T01:45:33;11.60;99.90
24103;DHT22;12278;53.058;9.028;2023-04-24T01:49:34;11.50;99.90
24103;DHT22;12278;53.058;9.028;2023-04-24T01:53:35;11.50;99.90
24103;DHT22;12278;53.058;9.028;2023-04-24T01:57:37;11.60;99.90
24103;DHT22;12278;53.058;9.028;2023-04-24T02:01:38;11.70;99.90
24103;DHT22;12278;53.058;9.028;2023-04-24T02:05:38;11.60;99.90
24103;DHT22;12278;53.058;9.028;2023-04-24T02:09:39;11.50;99.90
24103;DHT22;12278;53.058;9.028;2023-04-24T02:13:40;11.50;99.90
24103;DHT22;12278;53.058;9.028;2023-04-24T02:17:41;11.30;99.90
24103;DHT22;12278;53.058;9.028;2023-04-24T02:21:42;11.40;99.90
24103;DHT22;12278;53.058;9.028;2023-04-24T02:25:43;11.40;99.90
24103;DHT22;12278;53.058;9.028;2023-04-24T02:29:43;11.50;99.90
24103;DHT22;12278;53.058;9.028;2023-04-24T02:33:44;11.60;99.90
24103;DHT22;12278;53.058;9.028;2023-04-24T02:37:45;11.60;99.90
24103;DHT22;12278;53.058;9.028;2023-04-24T02:41:45;11.60;99.90
24103;DHT22;12278;53.058;9.028;2023-04-24T02:45:46;11.60;99.90
24103;DHT22;12278;53.058;9.028;2023-04-24T02:49:47;11.70;99.90
24103;DHT22;12278;53.058;9.028;2023-04-24T02:53:47;11.60;99.90
24103;DHT22;12278;53.058;9.028;2023-04-24T02:57:48;11.60;99.90
24103;DHT22;12278;53.058;9.028;2023-04-24T03:01:49;11.70;99.90
24103;DHT22;12278;53.058;9.028;2023-04-24T03:05:49;11.70;99.90
24103;DHT22;12278;53.058;9.028;2023-04-24T03:09:50;11.60;99.90
24103;DHT22;12278;53.058;9.028;2023-04-24T03:13:51;11.70;99.90
24103;DHT22;12278;53.058;9.028;2023-04-24T03:17:52;11.60;99.90
24103;DHT22;12278;53.058;9.028;2023-04-24T03:21:52;11.50;99.90
24103;DHT22;12278;53.058;9.028;2023-04-24T03:25:53;11.60;99.90
24103;DHT22;12278;53.058;9.028;2023-04-24T03:29:55;11.70;99.90
24103;DHT22;12278;53.058;9.028;2023-04-24T03:34:02;11.60;99.90
24103;DHT22;12278;53.058;9.028;2023-04-24T03:38:02;11.60;99.90
24103;DHT22;12278;53.058;9.028;2023-04-24T03:42:04;11.50;99.90
24103;DHT22;12278;53.058;9.028;2023-04-24T03:46:05;11.50;99.90
24103;DHT22;12278;53.058;9.028;2023-04-24T03:50:06;11.50;99.90
24103;DHT22;12278;53.058;9.028;2023-04-24T03:54:07;11.60;99.90
24103;DHT22;12278;53.058;9.028;2023-04-24T03:58:08;11.50;99.90
24103;DHT22;12278;53.058;9.028;2023-04-24T04:02:08;11.40;99.90
24103;DHT22;12278;53.058;9.028;2023-04-24T04:06:10;11.50;99.90
24103;DHT22;12278;53.058;9.028;2023-04-24T04:10:13;11.40;99.90
24103;DHT22;12278;53.058;9.028;2023-04-24T04:14:13;11.50;99.90
24103;DHT22;12278;53.058;9.028;2023-04-24T04:18:14;11.50;99.90
24103;DHT22;12278;53.058;9.028;2023-04-24T04:22:15;11.50;99.90
24103;DHT22;12278;53.058;9.028;2023-04-24T04:26:16;11.50;99.90
24103;DHT22;12278;53.058;9.028;2023-04-24T04:30:16;11.50;99.90
24103;DHT22;12278;53.058;9.028;2023-04-24T04:34:18;11.50;99.90
24103;DHT22;12278;53.058;9.028;2023-04-24T04:38:19;11.60;99.90
24103;DHT22;12278;53.058;9.028;2023-04-24T04:42:25;11.60;99.90
24103;DHT22;12278;53.058;9.028;2023-04-24T04:46:25;11.60;99.90
24103;DHT22;12278;53.058;9.028;2023-04-24T04:50:26;11.60;99.90
24103;DHT22;12278;53.058;9.028;2023-04-24T04:54:27;11.60;99.90
24103;DHT22;12278;53.058;9.028;2023-04-24T04:58:28;11.60;99.90
24103;DHT22;12278;53.058;9.028;2023-04-24T05:02:28;11.60;99.90
24103;DHT22;12278;53.058;9.028;2023-04-24T05:06:29;11.60;99.90
24103;DHT22;12278;53.058;9.028;2023-04-24T05:10:31;11.50;99.90
24103;DHT22;12278;53.058;9.028;2023-04-24T05:14:32;11.50;99.90
24103;DHT22;12278;53.058;9.028;2023-04-24T05:18:32;11.50;99.90
24103;DHT22;12278;53.058;9.028;2023-04-24T05:22:33;11.40;99.90
24103;DHT22;12278;53.058;9.028;2023-04-24T05:26:34;11.50;99.90
24103;DHT22;12278;53.058;9.028;2023-04-24T05:30:36;11.50;99.90
24103;DHT22;12278;53.058;9.028;2023-04-24T05:34:36;11.50;99.90
24103;DHT22;12278;53.058;9.028;2023-04-24T05:38:37;11.50;99.90
24103;DHT22;12278;53.058;9.028;2023-04-24T05:42:38;11.60;99.90
24103;DHT22;12278;53.058;9.028;2023-04-24T05:46:38;11.60;99.90
24103;DHT22;12278;53.058;9.028;2023-04-24T05:50:39;11.70;99.90
24103;DHT22;12278;53.058;9.028;2023-04-24T05:54:40;11.80;99.90
24103;DHT22;12278;53.058;9.028;2023-04-24T05:58:41;11.70;99.90
24103;DHT22;12278;53.058;9.028;2023-04-24T06:02:41;11.80;99.90
24103;DHT22;12278;53.058;9.028;2023-04-24T06:06:42;11.90;99.90
24103;DHT22;12278;53.058;9.028;2023-04-24T06:10:42;11.70;99.90
24103;DHT22;12278;53.058;9.028;2023-04-24T06:14:44;11.70;99.90
24103;DHT22;12278;53.058;9.028;2023-04-24T06:18:45;11.90;99.90
24103;DHT22;12278;53.058;9.028;2023-04-24T06:22:55;12.20;99.90
24103;DHT22;12278;53.058;9.028;2023-04-24T06:26:56;12.20;99.90
24103;DHT22;12278;53.058;9.028;2023-04-24T06:30:58;12.40;99.90
24103;DHT22;12278;53.058;9.028;2023-04-24T06:34:58;12.00;99.90
24103;DHT22;12278;53.058;9.028;2023-04-24T06:38:59;11.90;99.90
24103;DHT22;12278;53.058;9.028;2023-04-24T06:43:00;11.80;99.90
24103;DHT22;12278;53.058;9.028;2023-04-24T06:47:03;11.70;99.90
24103;DHT22;12278;53.058;9.028;2023-04-24T06:51:32;11.70;99.90
24103;DHT22;12278;53.058;9.028;2023-04-24T06:55:36;11.80;99.90
24103;DHT22;12278;53.058;9.028;2023-04-24T06:59:37;11.70;99.90
24103;DHT22;12278;53.058;9.028;2023-04-24T07:03:40;11.60;99.90
24103;DHT22;12278;53.058;9.028;2023-04-24T07:07:41;11.80;99.90
24103;DHT22;12278;53.058;9.028;2023-04-24T07:11:43;11.70;99.90
24103;DHT22;12278;53.058;9.028;2023-04-24T07:15:45;11.80;99.90
24103;DHT22;12278;53.058;9.028;2023-04-24T07:19:45;12.00;99.90
24103;DHT22;12278;53.058;9.028;2023-04-24T07:23:49;12.10;99.90
24103;DHT22;12278;53.058;9.028;2023-04-24T07:27:50;12.10;99.90
24103;DHT22;12278;53.058;9.028;2023-04-24T07:31:51;12.20;99.90
24103;DHT22;12278;53.058;9.028;2023-04-24T07:35:52;12.20;99.90
24103;DHT22;12278;53.058;9.028;2023-04-24T07:40:01;12.00;99.90
24103;DHT22;12278;53.058;9.028;2023-04-24T07:44:18;12.20;99.90
24103;DHT22;12278;53.058;9.028;2023-04-24T07:48:52;12.00;99.90
24103;DHT22;12278;53.058;9.028;2023-04-24T07:52:57;12.10;99.90
24103;DHT22;12278;53.058;9.028;2023-04-24T07:57:02;12.10;99.90
24103;DHT22;12278;53.058;9.028;2023-04-24T08:01:09;12.20;99.90
24103;DHT22;12278;53.058;9.028;2023-04-24T08:05:18;12.10;99.90
24103;DHT22;12278;53.058;9.028;2023-04-24T08:09:25;12.10;99.90
24103;DHT22;12278;53.058;9.028;2023-04-24T08:13:43;12.00;99.90
24103;DHT22;12278;53.058;9.028;2023-04-24T08:17:54;12.00;99.90
24103;DHT22;12278;53.058;9.028;2023-04-24T08:22:23;11.90;99.90
24103;DHT22;12278;53.058;9.028;2023-04-24T08:26:29;11.80;99.90
24103;DHT22;12278;53.058;9.028;2023-04-24T08:30:45;11.80;99.90
24103;DHT22;12278;53.058;9.028;2023-04-24T08:34:46;11.90;99.90
24103;DHT22;12278;53.058;9.028;2023-04-24T08:38:46;11.80;99.90
24103;DHT22;12278;53.058;9.028;2023-04-24T08:42:47;11.90;99.90
24103;DHT22;12278;53.058;9.028;2023-04-24T08:46:48;11.90;99.90
24103;DHT22;12278;53.058;9.028;2023-04-24T08:50:51;11.70;99.90
24103;DHT22;12278;53.058;9.028;2023-04-24T08:54:52;11.60;99.90
24103;DHT22;12278;53.058;9.028;2023-04-24T08:58:54;11.60;99.90
24103;DHT22;12278;53.058;9.028;2023-04-24T09:02:55;11.80;99.90
24103;DHT22;12278;53.058;9.028;2023-04-24T09:06:58;12.00;99.90
24103;DHT22;12278;53.058;9.028;2023-04-24T09:10:58;12.10;99.90
24103;DHT22;12278;53.058;9.028;2023-04-24T09:15:02;12.40;99.90
24103;DHT22;12278;53.058;9.028;2023-04-24T09:19:06;12.60;99.90
24103;DHT22;12278;53.058;9.028;2023-04-24T09:23:06;12.30;99.90
24103;DHT22;12278;53.058;9.028;2023-04-24T09:27:07;12.10;99.90
24103;DHT22;12278;53.058;9.028;2023-04-24T09:31:21;12.10;99.90
24103;DHT22;12278;53.058;9.028;2023-04-24T09:35:23;11.80;99.90
24103;DHT22;12278;53.058;9.028;2023-04-24T09:39:23;11.80;99.90
24103;DHT22;12278;53.058;9.028;2023-04-24T09:43:26;11.70;99.90
24103;DHT22;12278;53.058;9.028;2023-04-24T09:47:27;11.80;99.90
24103;DHT22;12278;53.058;9.028;2023-04-24T09:51:38;11.90;99.90
24103;DHT22;12278;53.058;9.028;2023-04-24T09:55:45;12.00;99.90
24103;DHT22;12278;53.058;9.028;2023-04-24T09:59:48;12.00;99.90
24103;DHT22;12278;53.058;9.028;2023-04-24T10:03:49;12.00;99.90
24103;DHT22;12278;53.058;9.028;2023-04-24T10:07:50;11.90;99.90
24103;DHT22;12278;53.058;9.028;2023-04-24T10:11:55;12.10;99.90
24103;DHT22;12278;53.058;9.028;2023-04-24T10:15:56;11.90;99.90
24103;DHT22;12278;53.058;9.028;2023-04-24T10:20:00;12.20;99.90
24103;DHT22;12278;53.058;9.028;2023-04-24T10:24:02;13.00;99.90
24103;DHT22;12278;53.058;9.028;2023-04-24T10:28:09;12.80;99.90
24103;DHT22;12278;53.058;9.028;2023-04-24T10:32:10;12.80;99.90
24103;DHT22;12278;53.058;9.028;2023-04-24T10:36:13;12.30;99.90
24103;DHT22;12278;53.058;9.028;2023-04-24T10:40:19;12.10;99.90
24103;DHT22;12278;53.058;9.028;2023-04-24T10:44:36;11.80;99.90
24103;DHT22;12278;53.058;9.028;2023-04-24T10:48:42;11.70;99.90
24103;DHT22;12278;53.058;9.028;2023-04-24T10:52:47;11.90;99.90
24103;DHT22;12278;53.058;9.028;2023-04-24T10:56:50;12.00;99.90
24103;DHT22;12278;53.058;9.028;2023-04-24T11:01:00;11.90;99.90
24103;DHT22;12278;53.058;9.028;2023-04-24T11:05:03;12.00;99.90
24103;DHT22;12278;53.058;9.028;2023-04-24T11:09:27;12.30;99.90
24103;DHT22;12278;53.058;9.028;2023-04-24T11:17:55;12.10;99.90
24103;DHT22;12278;53.058;9.028;2023-04-24T11:22:01;12.00;99.90
24103;DHT22;12278;53.058;9.028;2023-04-24T11:30:17;12.00;99.90
24103;DHT22;12278;53.058;9.028;2023-04-24T11:34:18;12.00;99.90
24103;DHT22;12278;53.058;9.028;2023-04-24T11:38:19;12.40;99.90
24103;DHT22;12278;53.058;9.028;2023-04-24T11:42:22;12.50;99.90
24103;DHT22;12278;53.058;9.028;2023-04-24T11:46:26;12.20;99.90
24103;DHT22;12278;53.058;9.028;2023-04-24T11:50:27;12.00;99.90
24103;DHT22;12278;53.058;9.028;2023-04-24T11:54:28;11.80;99.90
24103;DHT22;12278;53.058;9.028;2023-04-24T11:58:35;12.20;99.90
24103;DHT22;12278;53.058;9.028;2023-04-24T12:02:36;12.40;99.90
24103;DHT22;12278;53.058;9.028;2023-04-24T12:06:37;12.20;99.90
24103;DHT22;12278;53.058;9.028;2023-04-24T12:10:51;12.00;99.90
24103;DHT22;12278;53.058;9.028;2023-04-24T12:14:57;11.90;99.90
24103;DHT22;12278;53.058;9.028;2023-04-24T12:18:58;11.90;99.90
24103;DHT22;12278;53.058;9.028;2023-04-24T12:23:01;12.00;99.90
24103;DHT22;12278;53.058;9.028;2023-04-24T12:27:02;11.90;99.90
24103;DHT22;12278;53.058;9.028;2023-04-24T12:31:06;11.90;99.90
24103;DHT22;12278;53.058;9.028;2023-04-24T12:35:07;12.00;99.90
24103;DHT22;12278;53.058;9.028;2023-04-24T12:39:15;12.00;99.90
24103;DHT22;12278;53.058;9.028;2023-04-24T12:43:18;11.80;99.90
24103;DHT22;12278;53.058;9.028;2023-04-24T12:47:19;11.50;99.90
24103;DHT22;12278;53.058;9.028;2023-04-24T12:51:23;11.30;99.90
24103;DHT22;12278;53.058;9.028;2023-04-24T12:55:25;11.40;99.90
24103;DHT22;12278;53.058;9.028;2023-04-24T12:59:29;11.40;99.90
24103;DHT22;12278;53.058;9.028;2023-04-24T13:03:33;10.90;99.90
24103;DHT22;12278;53.058;9.028;2023-04-24T13:07:35;11.00;99.90
24103;DHT22;12278;53.058;9.028;2023-04-24T13:11:35;11.20;99.90
24103;DHT22;12278;53.058;9.028;2023-04-24T13:15:36;11.20;99.90
24103;DHT22;12278;53.058;9.028;2023-04-24T13:19:41;11.10;99.90
24103;DHT22;12278;53.058;9.028;2023-04-24T13:23:43;11.00;99.90
24103;DHT22;12278;53.058;9.028;2023-04-24T13:27:58;10.80;99.90
24103;DHT22;12278;53.058;9.028;2023-04-24T13:31:59;10.60;99.90
24103;DHT22;12278;53.058;9.028;2023-04-24T13:36:00;10.30;99.90
24103;DHT22;12278;53.058;9.028;2023-04-24T13:40:04;9.90;99.90
24103;DHT22;12278;53.058;9.028;2023-04-24T13:44:07;9.60;99.90
24103;DHT22;12278;53.058;9.028;2023-04-24T13:48:08;9.50;99.90
24103;DHT22;12278;53.058;9.028;2023-04-24T13:52:10;9.40;99.90
24103;DHT22;12278;53.058;9.028;2023-04-24T13:56:11;9.30;99.90
24103;DHT22;12278;53.058;9.028;2023-04-24T14:00:13;9.30;99.90
24103;DHT22;12278;53.058;9.028;2023-04-24T14:04:14;9.20;99.90
24103;DHT22;12278;53.058;9.028;2023-04-24T14:08:15;9.10;99.90
24103;DHT22;12278;53.058;9.028;2023-04-24T14:12:17;9.10;99.90
24103;DHT22;12278;53.058;9.028;2023-04-24T14:16:21;9.00;99.90
24103;DHT22;12278;53.058;9.028;2023-04-24T14:20:26;9.00;99.90
24103;DHT22;12278;53.058;9.028;2023-04-24T14:24:29;8.90;99.90
24103;DHT22;12278;53.058;9.028;2023-04-24T14:28:34;8.80;99.90
24103;DHT22;12278;53.058;9.028;2023-04-24T14:32:35;8.80;99.90
24103;DHT22;12278;53.058;9.028;2023-04-24T14:36:37;8.70;99.90
24103;DHT22;12278;53.058;9.028;2023-04-24T14:40:38;8.70;99.90
24103;DHT22;12278;53.058;9.028;2023-04-24T14:44:38;8.60;99.90
24103;DHT22;12278;53.058;9.028;2023-04-24T14:48:39;8.60;99.90
24103;DHT22;12278;53.058;9.028;2023-04-24T14:52:40;8.60;99.90
24103;DHT22;12278;53.058;9.028;2023-04-24T14:56:41;8.60;99.90
24103;DHT22;12278;53.058;9.028;2023-04-24T15:00:43;8.50;99.90
24103;DHT22;12278;53.058;9.028;2023-04-24T15:04:45;8.60;99.90
24103;DHT22;12278;53.058;9.028;2023-04-24T15:08:46;8.60;99.90
24103;DHT22;12278;53.058;9.028;2023-04-24T15:12:47;8.50;99.90
24103;DHT22;12278;53.058;9.028;2023-04-24T15:16:47;8.60;99.90
24103;DHT22;12278;53.058;9.028;2023-04-24T15:20:49;8.50;99.90
24103;DHT22;12278;53.058;9.028;2023-04-24T15:24:50;8.50;99.90
24103;DHT22;12278;53.058;9.028;2023-04-24T15:28:51;8.60;99.90
24103;DHT22;12278;53.058;9.028;2023-04-24T15:32:52;8.60;99.90
24103;DHT22;12278;53.058;9.028;2023-04-24T15:36:52;8.80;99.90
24103;DHT22;12278;53.058;9.028;2023-04-24T15:40:53;8.70;99.90
24103;DHT22;12278;53.058;9.028;2023-04-24T15:44:59;8.70;99.90
24103;DHT22;12278;53.058;9.028;2023-04-24T15:48:59;8.60;99.90
24103;DHT22;12278;53.058;9.028;2023-04-24T15:53:00;8.60;99.90
24103;DHT22;12278;53.058;9.028;2023-04-24T15:57:01;8.60;99.90
24103;DHT22;12278;53.058;9.028;2023-04-24T16:01:02;8.70;99.90
24103;DHT22;12278;53.058;9.028;2023-04-24T16:05:02;8.60;99.90
24103;DHT22;12278;53.058;9.028;2023-04-24T16:09:03;8.60;99.90
24103;DHT22;12278;53.058;9.028;2023-04-24T16:13:04;8.80;99.90
24103;DHT22;12278;53.058;9.028;2023-04-24T16:17:05;8.80;99.90
24103;DHT22;12278;53.058;9.028;2023-04-24T16:21:09;8.90;99.90
24103;DHT22;12278;53.058;9.028;2023-04-24T16:25:10;9.00;99.90
24103;DHT22;12278;53.058;9.028;2023-04-24T16:29:11;8.90;99.90
24103;DHT22;12278;53.058;9.028;2023-04-24T16:33:11;8.80;99.90
24103;DHT22;12278;53.058;9.028;2023-04-24T16:37:12;8.90;99.90
24103;DHT22;12278;53.058;9.028;2023-04-24T16:41:13;8.80;99.90
24103;DHT22;12278;53.058;9.028;2023-04-24T16:45:13;8.80;99.90
24103;DHT22;12278;53.058;9.028;2023-04-24T16:49:14;8.80;99.90
24103;DHT22;12278;53.058;9.028;2023-04-24T16:53:15;8.80;99.90
24103;DHT22;12278;53.058;9.028;2023-04-24T16:57:16;8.80;99.90
24103;DHT22;12278;53.058;9.028;2023-04-24T17:01:16;8.80;99.90
24103;DHT22;12278;53.058;9.028;2023-04-24T17:05:17;8.70;99.90
24103;DHT22;12278;53.058;9.028;2023-04-24T17:09:19;8.70;99.90
24103;DHT22;12278;53.058;9.028;2023-04-24T17:13:20;8.60;99.90
24103;DHT22;12278;53.058;9.028;2023-04-24T17:17:20;8.60;99.90
24103;DHT22;12278;53.058;9.028;2023-04-24T17:21:32;8.60;99.90
24103;DHT22;12278;53.058;9.028;2023-04-24T17:25:33;8.60;99.90
24103;DHT22;12278;53.058;9.028;2023-04-24T17:29:37;8.60;99.90
24103;DHT22;12278;53.058;9.028;2023-04-24T17:33:37;8.70;99.90
24103;DHT22;12278;53.058;9.028;2023-04-24T17:37:38;8.70;99.90
24103;DHT22;12278;53.058;9.028;2023-04-24T17:41:39;8.60;99.90
24103;DHT22;12278;53.058;9.028;2023-04-24T17:45:39;8.70;99.90
24103;DHT22;12278;53.058;9.028;2023-04-24T17:49:40;8.60;99.90
24103;DHT22;12278;53.058;9.028;2023-04-24T17:53:42;8.50;99.90
24103;DHT22;12278;53.058;9.028;2023-04-24T17:57:43;8.50;99.90
24103;DHT22;12278;53.058;9.028;2023-04-24T18:01:44;8.40;99.90
24103;DHT22;12278;53.058;9.028;2023-04-24T18:05:45;8.50;99.90
24103;DHT22;12278;53.058;9.028;2023-04-24T18:09:47;8.50;99.90
24103;DHT22;12278;53.058;9.028;2023-04-24T18:13:48;8.50;99.90
24103;DHT22;12278;53.058;9.028;2023-04-24T18:17:52;8.40;99.90
24103;DHT22;12278;53.058;9.028;2023-04-24T18:21:52;8.50;99.90
24103;DHT22;12278;53.058;9.028;2023-04-24T18:25:55;8.50;99.90
24103;DHT22;12278;53.058;9.028;2023-04-24T18:29:56;8.60;99.90
24103;DHT22;12278;53.058;9.028;2023-04-24T18:33:58;8.60;99.90
24103;DHT22;12278;53.058;9.028;2023-04-24T18:37:59;8.50;99.90
24103;DHT22;12278;53.058;9.028;2023-04-24T18:42:00;8.60;99.90
24103;DHT22;12278;53.058;9.028;2023-04-24T18:46:01;8.60;99.90
24103;DHT22;12278;53.058;9.028;2023-04-24T18:50:02;8.60;99.90
24103;DHT22;12278;53.058;9.028;2023-04-24T18:54:03;8.60;99.90
24103;DHT22;12278;53.058;9.028;2023-04-24T18:58:04;8.60;99.90
24103;DHT22;12278;53.058;9.028;2023-04-24T19:02:05;8.60;99.90
24103;DHT22;12278;53.058;9.028;2023-04-24T19:06:06;8.60;99.90
24103;DHT22;12278;53.058;9.028;2023-04-24T19:10:07;8.60;99.90
24103;DHT22;12278;53.058;9.028;2023-04-24T19:14:08;8.50;99.90
24103;DHT22;12278;53.058;9.028;2023-04-24T19:18:09;8.60;99.90
24103;DHT22;12278;53.058;9.028;2023-04-24T19:22:10;8.50;99.90
24103;DHT22;12278;53.058;9.028;2023-04-24T19:26:10;8.50;99.90
24103;DHT22;12278;53.058;9.028;2023-04-24T19:30:13;8.50;99.90
24103;DHT22;12278;53.058;9.028;2023-04-24T19:34:13;8.50;99.90
24103;DHT22;12278;53.058;9.028;2023-04-24T19:38:15;8.40;99.90
24103;DHT22;12278;53.058;9.028;2023-04-24T19:42:16;8.50;99.90
24103;DHT22;12278;53.058;9.028;2023-04-24T19:46:17;8.40;99.90
24103;DHT22;12278;53.058;9.028;2023-04-24T19:50:18;8.40;99.90
24103;DHT22;12278;53.058;9.028;2023-04-24T19:54:18;8.40;99.90
24103;DHT22;12278;53.058;9.028;2023-04-24T19:58:21;8.40;99.90
24103;DHT22;12278;53.058;9.028;2023-04-24T20:02:22;8.40;99.90
24103;DHT22;12278;53.058;9.028;2023-04-24T20:06:23;8.40;99.90
24103;DHT22;12278;53.058;9.028;2023-04-24T20:10:23;8.40;99.90
24103;DHT22;12278;53.058;9.028;2023-04-24T20:14:24;8.40;99.90
24103;DHT22;12278;53.058;9.028;2023-04-24T20:18:25;8.40;99.90
24103;DHT22;12278;53.058;9.028;2023-04-24T20:22:25;8.40;99.90
24103;DHT22;12278;53.058;9.028;2023-04-24T20:26:26;8.40;99.90
24103;DHT22;12278;53.058;9.028;2023-04-24T20:30:27;8.50;99.90
24103;DHT22;12278;53.058;9.028;2023-04-24T20:34:30;8.50;99.90
24103;DHT22;12278;53.058;9.028;2023-04-24T20:38:38;8.50;99.90
24103;DHT22;12278;53.058;9.028;2023-04-24T20:42:43;8.40;99.90
24103;DHT22;12278;53.058;9.028;2023-04-24T20:46:45;8.40;99.90
24103;DHT22;12278;53.058;9.028;2023-04-24T20:50:46;8.40;99.90
24103;DHT22;12278;53.058;9.028;2023-04-24T20:54:47;8.40;99.90
24103;DHT22;12278;53.058;9.028;2023-04-24T20:58:48;8.40;99.90
24103;DHT22;12278;53.058;9.028;2023-04-24T21:02:48;8.40;99.90
24103;DHT22;12278;53.058;9.028;2023-04-24T21:06:49;8.30;99.90
24103;DHT22;12278;53.058;9.028;2023-04-24T21:10:50;8.30;99.90
24103;DHT22;12278;53.058;9.028;2023-04-24T21:14:53;8.20;99.90
24103;DHT22;12278;53.058;9.028;2023-04-24T21:18:56;8.20;99.90
24103;DHT22;12278;53.058;9.028;2023-04-24T21:22:56;8.20;99.90
24103;DHT22;12278;53.058;9.028;2023-04-24T21:26:57;8.20;99.90
24103;DHT22;12278;53.058;9.028;2023-04-24T21:30:58;8.10;99.90
24103;DHT22;12278;53.058;9.028;2023-04-24T21:35:04;8.10;99.90
24103;DHT22;12278;53.058;9.028;2023-04-24T21:39:05;8.10;99.90
24103;DHT22;12278;53.058;9.028;2023-04-24T21:43:06;8.10;99.90
24103;DHT22;12278;53.058;9.028;2023-04-24T21:47:06;8.10;99.90
24103;DHT22;12278;53.058;9.028;2023-04-24T21:51:07;8.10;99.90
24103;DHT22;12278;53.058;9.028;2023-04-24T21:55:08;8.10;99.90
24103;DHT22;12278;53.058;9.028;2023-04-24T21:59:09;8.10;99.90
24103;DHT22;12278;53.058;9.028;2023-04-24T22:03:12;8.10;99.90
24103;DHT22;12278;53.058;9.028;2023-04-24T22:07:15;8.00;99.90
24103;DHT22;12278;53.058;9.028;2023-04-24T22:11:16;8.00;99.90
24103;DHT22;12278;53.058;9.028;2023-04-24T22:15:17;8.00;99.90
24103;DHT22;12278;53.058;9.028;2023-04-24T22:19:18;7.90;99.90
24103;DHT22;12278;53.058;9.028;2023-04-24T22:23:19;7.90;99.90
24103;DHT22;12278;53.058;9.028;2023-04-24T22:27:19;7.90;99.90
24103;DHT22;12278;53.058;9.028;2023-04-24T22:31:25;7.90;99.90
24103;DHT22;12278;53.058;9.028;2023-04-24T22:35:25;7.80;99.90
24103;DHT22;12278;53.058;9.028;2023-04-24T22:39:26;8.00;99.90
24103;DHT22;12278;53.058;9.028;2023-04-24T22:43:27;8.00;99.90
24103;DHT22;12278;53.058;9.028;2023-04-24T22:47:28;7.90;99.90
24103;DHT22;12278;53.058;9.028;2023-04-24T22:51:28;7.90;99.90
24103;DHT22;12278;53.058;9.028;2023-04-24T22:55:32;7.90;99.90
24103;DHT22;12278;53.058;9.028;2023-04-24T22:59:34;8.00;99.90
24103;DHT22;12278;53.058;9.028;2023-04-24T23:03:35;7.90;99.90
24103;DHT22;12278;53.058;9.028;2023-04-24T23:07:36;7.90;99.90
24103;DHT22;12278;53.058;9.028;2023-04-24T23:11:39;7.90;99.90
24103;DHT22;12278;53.058;9.028;2023-04-24T23:15:40;7.90;99.90
24103;DHT22;12278;53.058;9.028;2023-04-24T23:19:41;8.00;99.90
24103;DHT22;12278;53.058;9.028;2023-04-24T23:23:42;7.80;99.90
24103;DHT22;12278;53.058;9.028;2023-04-24T23:27:42;7.80;99.90
24103;DHT22;12278;53.058;9.028;2023-04-24T23:31:43;7.80;99.90
24103;DHT22;12278;53.058;9.028;2023-04-24T23:35:43;7.80;99.90
24103;DHT22;12278;53.058;9.028;2023-04-24T23:39:50;7.80;99.90
24103;DHT22;12278;53.058;9.028;2023-04-24T23:43:51;7.80;99.90
24103;DHT22;12278;53.058;9.028;2023-04-24T23:47:51;7.80;99.90
24103;DHT22;12278;53.058;9.028;2023-04-24T23:51:52;7.80;99.90
24103;DHT22;12278;53.058;9.028;2023-04-24T23:55:53;7.80;99.90
24103;DHT22;12278;53.058;9.028;2023-04-24T23:59:54;7.70;99.90
